createdAt,value
2022-08-16T00:00:20.386Z,20.31
2022-08-16T00:02:51.947Z,20.29
2022-08-16T00:05:20.354Z,20.29
2022-08-16T00:07:47.434Z,20.27
2022-08-16T00:10:21.147Z,20.24
2022-08-16T00:12:49.964Z,20.22
2022-08-16T00:15:23.118Z,20.19
2022-08-16T00:17:57.020Z,20.18
2022-08-16T00:20:25.150Z,20.17
2022-08-16T00:22:52.711Z,20.10
2022-08-16T00:25:21.861Z,20.08
2022-08-16T00:28:09.192Z,20.07
2022-08-16T00:30:38.805Z,20.06
2022-08-16T00:33:06.964Z,20.02
2022-08-16T00:35:37.008Z,20.00
2022-08-16T00:38:41.514Z,19.97
2022-08-16T00:40:54.325Z,19.94
2022-08-16T00:43:43.228Z,19.91
2022-08-16T00:46:33.224Z,19.89
2022-08-16T00:49:05.358Z,19.85
2022-08-16T00:51:32.493Z,19.82
2022-08-16T00:54:01.244Z,19.79
2022-08-16T00:56:57.657Z,19.77
2022-08-16T00:59:23.779Z,19.73
2022-08-16T01:01:51.492Z,19.71
2022-08-16T01:04:29.013Z,19.70
2022-08-16T01:07:01.834Z,19.69
2022-08-16T01:09:33.260Z,19.69
2022-08-16T01:12:04.086Z,19.69
2022-08-16T01:14:43.436Z,19.69
2022-08-16T01:17:13.009Z,19.69
2022-08-16T01:19:44.392Z,19.69
2022-08-16T01:22:52.533Z,19.70
2022-08-16T01:25:33.993Z,19.70
2022-08-16T01:28:07.182Z,19.69
2022-08-16T01:30:39.806Z,19.67
2022-08-16T01:33:17.510Z,19.65
2022-08-16T01:35:56.686Z,19.64
2022-08-16T01:38:31.920Z,19.63
2022-08-16T01:41:03.629Z,19.60
2022-08-16T01:43:31.985Z,19.55
2022-08-16T01:46:29.943Z,19.55
2022-08-16T01:48:48.851Z,19.55
2022-08-16T01:51:18.476Z,19.51
2022-08-16T01:53:55.480Z,19.47
2022-08-16T01:56:25.227Z,19.44
2022-08-16T01:58:54.751Z,19.43
2022-08-16T02:01:22.520Z,19.44
2022-08-16T02:03:51.804Z,19.45
2022-08-16T02:06:33.887Z,19.44
2022-08-16T02:09:05.424Z,19.43
2022-08-16T02:11:47.379Z,19.44
2022-08-16T02:14:18.287Z,19.44
2022-08-16T02:16:49.190Z,19.43
2022-08-16T02:19:19.921Z,19.40
2022-08-16T02:22:08.375Z,19.40
2022-08-16T02:24:42.206Z,19.43
2022-08-16T02:27:10.378Z,19.38
2022-08-16T02:29:38.375Z,19.38
2022-08-16T02:32:50.422Z,19.39
2022-08-16T02:35:01.127Z,19.39
2022-08-16T02:37:39.756Z,19.38
2022-08-16T02:40:16.975Z,19.38
2022-08-16T02:42:50.007Z,19.39
2022-08-16T02:45:20.240Z,19.39
2022-08-16T02:48:01.855Z,19.39
2022-08-16T02:50:54.330Z,19.36
2022-08-16T02:53:27.025Z,19.33
2022-08-16T02:55:54.440Z,19.30
2022-08-16T02:58:24.807Z,19.28
2022-08-16T03:00:56.166Z,19.28
2022-08-16T03:03:25.975Z,19.28
2022-08-16T03:05:53.617Z,19.27
2022-08-16T03:08:31.126Z,19.27
2022-08-16T03:11:16.829Z,19.24
2022-08-16T03:13:53.156Z,19.23
2022-08-16T03:16:37.621Z,19.23
2022-08-16T03:19:06.768Z,19.22
2022-08-16T03:21:37.841Z,19.21
2022-08-16T03:24:28.569Z,19.23
2022-08-16T03:26:58.114Z,19.26
2022-08-16T03:29:31.989Z,19.31
2022-08-16T03:32:01.222Z,19.37
2022-08-16T03:34:29.617Z,19.38
2022-08-16T03:36:57.381Z,19.34
2022-08-16T03:39:25.061Z,19.36
2022-08-16T03:41:59.279Z,19.36
2022-08-16T03:44:44.293Z,19.36
2022-08-16T03:47:19.803Z,19.37
2022-08-16T03:49:51.806Z,19.38
2022-08-16T03:52:20.710Z,19.36
2022-08-16T03:54:57.440Z,19.38
2022-08-16T03:57:31.666Z,19.37
2022-08-16T04:00:20.786Z,19.37
2022-08-16T04:03:08.551Z,19.34
2022-08-16T04:05:38.899Z,19.34
2022-08-16T04:08:23.198Z,19.33
2022-08-16T04:10:52.862Z,19.34
2022-08-16T04:14:00.745Z,19.39
2022-08-16T04:16:08.377Z,19.42
2022-08-16T04:18:38.756Z,19.43
2022-08-16T04:21:06.088Z,19.48
2022-08-16T04:23:33.337Z,19.49
2022-08-16T04:26:02.124Z,19.52
2022-08-16T04:28:55.833Z,19.52
2022-08-16T04:31:16.802Z,19.55
2022-08-16T04:33:51.157Z,19.61
2022-08-16T04:36:20.196Z,19.65
2022-08-16T04:38:50.080Z,19.68
2022-08-16T04:41:19.497Z,19.73
2022-08-16T04:44:00.612Z,19.78
2022-08-16T04:47:01.219Z,19.85
2022-08-16T04:49:14.762Z,19.90
2022-08-16T04:51:41.840Z,19.94
2022-08-16T04:54:10.157Z,19.97
2022-08-16T04:56:42.902Z,20.03
2022-08-16T04:59:13.548Z,20.10
2022-08-16T05:01:58.087Z,20.14
2022-08-16T05:04:26.118Z,20.18
2022-08-16T05:06:57.445Z,20.22
2022-08-16T05:09:24.672Z,20.23
2022-08-16T05:11:51.784Z,20.30
2022-08-16T05:14:20.268Z,20.33
2022-08-16T05:17:06.068Z,20.37
2022-08-16T05:19:36.684Z,20.39
2022-08-16T05:22:04.082Z,20.45
2022-08-16T05:24:31.994Z,20.48
2022-08-16T05:26:59.129Z,20.54
2022-08-16T05:30:00.153Z,20.60
2022-08-16T05:32:32.512Z,20.67
2022-08-16T05:35:01.906Z,20.72
2022-08-16T05:37:29.462Z,20.73
2022-08-16T05:40:08.213Z,20.76
2022-08-16T05:42:36.131Z,20.74
2022-08-16T05:45:06.938Z,20.78
2022-08-16T05:47:34.314Z,20.84
2022-08-16T05:50:19.361Z,20.90
2022-08-16T05:52:46.696Z,20.96
2022-08-16T05:55:13.995Z,21.01
2022-08-16T05:57:41.933Z,21.04
2022-08-16T06:00:11.780Z,21.14
2022-08-16T06:02:39.056Z,21.13
2022-08-16T06:05:06.944Z,21.19
2022-08-16T06:07:38.442Z,21.24
2022-08-16T06:10:07.489Z,21.37
2022-08-16T06:12:37.418Z,21.44
2022-08-16T06:15:09.918Z,21.52
2022-08-16T06:17:43.290Z,21.59
2022-08-16T06:20:24.059Z,21.58
2022-08-16T06:22:58.513Z,21.67
2022-08-16T06:25:35.975Z,21.72
2022-08-16T06:28:08.839Z,21.87
2022-08-16T06:30:43.426Z,21.92
2022-08-16T06:33:22.185Z,22.00
2022-08-16T06:35:57.725Z,22.05
2022-08-16T06:38:33.483Z,22.06
2022-08-16T06:41:06.874Z,22.11
2022-08-16T06:43:41.697Z,22.14
2022-08-16T06:46:20.750Z,22.04
2022-08-16T06:48:51.523Z,22.11
2022-08-16T06:51:19.006Z,22.19
2022-08-16T06:53:46.238Z,22.17
2022-08-16T06:56:23.374Z,22.29
2022-08-16T06:58:52.735Z,22.34
2022-08-16T07:01:42.856Z,22.39
2022-08-16T07:04:10.454Z,22.45
2022-08-16T07:06:43.156Z,22.54
2022-08-16T07:09:12.317Z,22.67
2022-08-16T07:11:45.592Z,22.77
2022-08-16T07:14:24.584Z,22.74
2022-08-16T07:16:58.227Z,22.81
2022-08-16T07:20:01.641Z,22.93
2022-08-16T07:22:37.378Z,22.94
2022-08-16T07:25:01.236Z,23.06
2022-08-16T07:27:28.820Z,23.19
2022-08-16T07:29:59.231Z,23.30
2022-08-16T07:32:29.694Z,23.42
2022-08-16T07:34:58.732Z,23.55
2022-08-16T07:37:25.840Z,23.64
2022-08-16T07:39:54.640Z,23.69
2022-08-16T07:42:28.272Z,23.82
2022-08-16T07:45:07.517Z,23.71
2022-08-16T07:47:37.391Z,23.82
2022-08-16T07:50:07.810Z,23.90
2022-08-16T07:52:35.208Z,23.93
2022-08-16T07:55:07.052Z,24.02
2022-08-16T07:57:38.072Z,24.04
2022-08-16T08:00:21.243Z,24.16
2022-08-16T08:02:55.448Z,24.23
2022-08-16T08:05:25.598Z,24.34
2022-08-16T08:08:03.219Z,24.43
2022-08-16T08:10:39.307Z,24.39
2022-08-16T08:13:06.399Z,24.49
2022-08-16T08:15:37.155Z,24.60
2022-08-16T08:18:29.999Z,24.72
2022-08-16T08:20:59.146Z,24.82
2022-08-16T08:23:27.585Z,24.86
2022-08-16T08:25:55.849Z,24.97
2022-08-16T08:28:23.140Z,25.00
2022-08-16T08:31:01.143Z,25.14
2022-08-16T08:33:29.368Z,25.07
2022-08-16T08:36:01.428Z,25.08
2022-08-16T08:38:45.580Z,25.06
2022-08-16T08:41:15.169Z,25.15
2022-08-16T08:43:42.997Z,25.20
2022-08-16T08:46:17.873Z,25.33
2022-08-16T08:48:59.397Z,25.39
2022-08-16T08:51:35.867Z,25.25
2022-08-16T08:54:09.468Z,25.40
2022-08-16T08:56:37.698Z,25.43
2022-08-16T08:59:20.523Z,25.39
2022-08-16T09:01:58.094Z,25.51
2022-08-16T09:04:27.173Z,25.66
2022-08-16T09:06:54.911Z,25.83
2022-08-16T09:09:22.835Z,26.02
2022-08-16T09:11:53.357Z,26.16
2022-08-16T09:14:32.110Z,26.26
2022-08-16T09:17:03.059Z,26.27
2022-08-16T09:19:40.878Z,26.33
2022-08-16T09:22:19.863Z,26.50
2022-08-16T09:24:52.363Z,26.59
2022-08-16T09:27:23.565Z,26.58
2022-08-16T09:30:00.152Z,26.59
2022-08-16T09:32:31.176Z,26.73
2022-08-16T09:34:59.804Z,26.62
2022-08-16T09:37:36.353Z,26.53
2022-08-16T09:40:33.094Z,26.73
2022-08-16T09:42:56.348Z,26.91
2022-08-16T09:45:28.894Z,26.48
2022-08-16T09:47:58.353Z,26.35
2022-08-16T09:50:36.914Z,26.70
2022-08-16T09:53:08.741Z,26.43
2022-08-16T09:55:44.927Z,26.67
2022-08-16T09:58:40.673Z,26.82
2022-08-16T10:01:03.522Z,27.19
2022-08-16T10:03:32.120Z,27.49
2022-08-16T10:05:59.243Z,27.67
2022-08-16T10:08:27.448Z,27.90
2022-08-16T10:11:30.402Z,28.07
2022-08-16T10:13:57.487Z,27.92
2022-08-16T10:16:25.127Z,27.80
2022-08-16T10:19:02.390Z,27.97
2022-08-16T10:21:33.954Z,28.30
2022-08-16T10:24:02.125Z,28.62
2022-08-16T10:27:19.946Z,28.82
2022-08-16T10:29:20.025Z,29.00
2022-08-16T10:31:53.090Z,28.85
2022-08-16T10:34:31.923Z,28.94
2022-08-16T10:37:00.820Z,29.04
2022-08-16T10:39:40.573Z,29.41
2022-08-16T10:42:08.750Z,29.49
2022-08-16T10:44:35.898Z,29.45
2022-08-16T10:47:03.764Z,29.33
2022-08-16T10:49:32.190Z,29.20
2022-08-16T10:52:02.736Z,29.10
2022-08-16T10:55:37.276Z,29.40
2022-08-16T10:57:32.847Z,29.89
2022-08-16T11:00:01.311Z,29.59
2022-08-16T11:02:58.817Z,29.61
2022-08-16T11:05:16.966Z,30.01
2022-08-16T11:07:52.324Z,30.52
2022-08-16T11:16:26.361Z,31.04
2022-08-16T11:19:05.328Z,30.90
2022-08-16T11:22:22.933Z,30.82
2022-08-16T11:24:42.903Z,31.04
2022-08-16T11:27:22.920Z,31.59
2022-08-16T11:29:53.527Z,32.01
2022-08-16T11:32:31.196Z,32.08
2022-08-16T11:35:10.273Z,32.35
2022-08-16T11:40:32.741Z,32.59
2022-08-16T11:43:01.489Z,32.84
2022-08-16T11:45:33.953Z,32.74
2022-08-16T11:48:05.571Z,32.91
2022-08-16T11:50:33.659Z,33.23
2022-08-16T11:53:02.390Z,33.64
2022-08-16T11:55:32.435Z,33.73
2022-08-16T11:58:00.547Z,33.68
2022-08-16T12:00:33.775Z,33.47
2022-08-16T12:03:16.982Z,33.42
2022-08-16T12:05:46.002Z,33.54
2022-08-16T12:08:13.147Z,33.47
2022-08-16T12:10:46.951Z,33.47
2022-08-16T12:13:14.710Z,33.38
2022-08-16T12:15:42.496Z,33.44
2022-08-16T12:18:11.146Z,33.54
2022-08-16T12:20:47.870Z,33.63
2022-08-16T12:23:17.353Z,32.73
2022-08-16T12:25:44.762Z,32.80
2022-08-16T12:28:12.623Z,32.79
2022-08-16T12:33:25.222Z,32.24
2022-08-16T12:35:53.133Z,32.03
2022-08-16T12:38:40.876Z,32.26
2022-08-16T12:41:08.123Z,32.44
2022-08-16T12:43:36.352Z,32.37
2022-08-16T12:46:09.503Z,32.48
2022-08-16T12:48:55.827Z,32.55
2022-08-16T12:51:31.286Z,32.42
2022-08-16T12:54:16.061Z,32.44
2022-08-16T12:56:43.276Z,32.71
2022-08-16T12:59:13.208Z,32.83
2022-08-16T13:01:47.663Z,32.65
2022-08-16T13:04:20.650Z,32.21
2022-08-16T13:06:52.128Z,32.06
2022-08-16T13:09:24.059Z,31.84
2022-08-16T13:12:00.486Z,31.74
2022-08-16T13:14:33.511Z,31.61
2022-08-16T13:17:06.479Z,31.29
2022-08-16T13:20:05.462Z,31.39
2022-08-16T13:22:23.566Z,31.30
2022-08-16T13:24:53.256Z,30.86
2022-08-16T13:27:20.716Z,30.93
2022-08-16T13:30:01.923Z,30.96
2022-08-16T13:32:39.483Z,30.87
2022-08-16T13:35:08.143Z,30.44
2022-08-16T13:37:41.275Z,30.36
2022-08-16T13:40:09.979Z,30.38
2022-08-16T13:42:49.560Z,30.29
2022-08-16T13:45:16.930Z,30.20
2022-08-16T13:47:44.104Z,30.16
2022-08-16T13:50:11.927Z,30.47
2022-08-16T13:52:40.385Z,31.02
2022-08-16T13:55:17.787Z,31.50
2022-08-16T13:58:34.289Z,33.08
2022-08-16T14:00:32.508Z,34.53
2022-08-16T14:02:59.741Z,34.31
2022-08-16T14:05:27.296Z,33.84
2022-08-16T14:07:54.480Z,33.37
2022-08-16T14:10:21.607Z,32.99
2022-08-16T14:12:48.718Z,33.05
2022-08-16T14:15:16.329Z,33.76
2022-08-16T14:18:14.847Z,36.65
2022-08-16T14:20:30.986Z,40.57
2022-08-16T14:22:58.886Z,42.72
2022-08-16T14:25:27.021Z,43.43
2022-08-16T14:27:54.787Z,42.30
2022-08-16T14:30:23.235Z,40.31
2022-08-16T14:32:51.317Z,40.57
2022-08-16T14:35:36.389Z,39.35
2022-08-16T14:38:13.464Z,39.13
2022-08-16T14:40:52.507Z,36.99
2022-08-16T14:43:22.014Z,36.00
2022-08-16T14:45:50.642Z,35.97
2022-08-16T14:48:25.065Z,35.45
2022-08-16T14:50:53.853Z,37.38
2022-08-16T14:53:21.028Z,40.54
2022-08-16T14:55:48.533Z,42.17
2022-08-16T14:58:19.633Z,41.50
2022-08-16T15:00:50.167Z,40.57
2022-08-16T15:03:19.212Z,42.49
2022-08-16T15:05:48.618Z,44.98
2022-08-16T15:08:17.122Z,43.79
2022-08-16T15:10:47.532Z,43.87
2022-08-16T15:13:14.950Z,45.74
2022-08-16T15:15:43.419Z,47.59
2022-08-16T15:18:12.063Z,49.32
2022-08-16T15:20:41.107Z,49.26
2022-08-16T15:23:10.042Z,47.55
2022-08-16T15:25:44.238Z,46.51
2022-08-16T15:28:31.121Z,47.79
2022-08-16T15:31:03.317Z,49.16
2022-08-16T15:33:33.834Z,48.77
2022-08-16T15:36:03.763Z,49.93
2022-08-16T15:39:03.894Z,47.17
2022-08-16T15:41:42.582Z,48.87
2022-08-16T15:44:15.410Z,48.83
2022-08-16T15:46:55.228Z,48.04
2022-08-16T15:49:34.669Z,47.95
2022-08-16T15:52:07.562Z,49.74
2022-08-16T15:54:52.469Z,47.33
2022-08-16T15:57:23.021Z,47.58
2022-08-16T15:59:52.445Z,49.07
2022-08-16T16:02:29.695Z,50.16
2022-08-16T16:05:01.067Z,50.10
2022-08-16T16:07:30.781Z,49.38
2022-08-16T16:09:59.619Z,49.84
2022-08-16T16:12:51.344Z,47.17
2022-08-16T16:15:18.294Z,46.10
2022-08-16T16:17:51.313Z,45.18
2022-08-16T16:20:22.189Z,46.27
2022-08-16T16:22:52.102Z,47.54
2022-08-16T16:25:19.339Z,49.26
2022-08-16T16:27:55.873Z,47.77
2022-08-16T16:30:37.813Z,45.21
2022-08-16T16:33:20.591Z,42.70
2022-08-16T16:35:55.315Z,40.89
2022-08-16T16:38:28.646Z,39.51
2022-08-16T16:40:56.992Z,38.08
2022-08-16T16:43:25.490Z,37.07
2022-08-16T16:45:53.338Z,36.59
2022-08-16T16:48:21.812Z,35.91
2022-08-16T16:50:57.996Z,35.46
2022-08-16T16:53:26.082Z,34.26
2022-08-16T16:55:58.853Z,33.82
2022-08-16T16:58:54.169Z,33.63
2022-08-16T17:01:21.422Z,33.21
2022-08-16T17:04:13.326Z,32.80
2022-08-16T17:06:53.196Z,32.37
2022-08-16T17:09:20.926Z,32.24
2022-08-16T17:11:54.861Z,31.73
2022-08-16T17:14:33.415Z,31.62
2022-08-16T17:17:08.861Z,31.50
2022-08-16T17:19:40.784Z,31.40
2022-08-16T17:22:13.815Z,31.32
2022-08-16T17:24:45.248Z,31.11
2022-08-16T17:27:19.299Z,30.96
2022-08-16T17:30:29.533Z,30.69
2022-08-16T17:33:11.282Z,30.59
2022-08-16T17:35:55.604Z,30.51
2022-08-16T17:38:38.810Z,30.33
2022-08-16T17:41:12.186Z,30.11
2022-08-16T17:43:44.466Z,30.05
2022-08-16T17:46:41.137Z,29.95
2022-08-16T17:49:00.446Z,29.82
2022-08-16T17:51:28.393Z,29.73
2022-08-16T17:53:56.475Z,29.63
2022-08-16T17:56:23.571Z,29.47
2022-08-16T17:58:50.686Z,29.36
2022-08-16T18:01:20.211Z,29.24
2022-08-16T18:04:06.371Z,29.10
2022-08-16T18:06:34.368Z,28.88
2022-08-16T18:09:03.391Z,28.77
2022-08-16T18:11:33.771Z,28.60
2022-08-16T18:14:01.082Z,28.49
2022-08-16T18:16:28.255Z,28.35
2022-08-16T18:18:55.334Z,28.20
2022-08-16T18:21:41.747Z,28.11
2022-08-16T18:24:10.995Z,27.98
2022-08-16T18:26:38.791Z,27.89
2022-08-16T18:29:06.531Z,27.79
2022-08-16T18:31:34.386Z,27.67
2022-08-16T18:34:01.573Z,27.55
2022-08-16T18:36:28.810Z,27.44
2022-08-16T18:38:55.913Z,27.33
2022-08-16T18:41:24.737Z,27.23
2022-08-16T18:44:23.570Z,27.12
2022-08-16T18:46:43.638Z,27.01
2022-08-16T18:49:13.124Z,26.92
2022-08-16T18:51:43.339Z,26.86
2022-08-16T18:54:11.483Z,26.78
2022-08-16T18:56:56.156Z,26.72
2022-08-16T18:59:26.086Z,26.64
2022-08-16T19:01:53.248Z,26.57
2022-08-16T19:04:54.812Z,26.53
2022-08-16T19:07:14.585Z,26.44
2022-08-16T19:09:41.866Z,26.37
2022-08-16T19:12:09.178Z,26.27
2022-08-16T19:14:36.284Z,26.20
2022-08-16T19:17:03.962Z,26.12
2022-08-16T19:19:31.116Z,26.06
2022-08-16T19:21:58.293Z,26.00
2022-08-16T19:24:29.213Z,25.96
2022-08-16T19:26:57.186Z,25.93
2022-08-16T19:29:24.621Z,25.88
2022-08-16T19:31:51.804Z,25.79
2022-08-16T19:34:18.866Z,25.73
2022-08-16T19:36:45.969Z,25.68
2022-08-16T19:39:15.156Z,25.63
2022-08-16T19:41:45.458Z,25.59
2022-08-16T19:44:13.143Z,25.54
2022-08-16T19:46:44.699Z,25.47
2022-08-16T19:49:15.842Z,25.42
2022-08-16T19:51:45.253Z,25.36
2022-08-16T19:54:12.313Z,25.31
2022-08-16T19:56:39.400Z,25.22
2022-08-16T19:59:39.618Z,25.16
2022-08-16T20:01:53.557Z,25.09
2022-08-16T20:04:22.033Z,25.02
2022-08-16T20:06:49.837Z,24.94
2022-08-16T20:09:17.158Z,24.86
2022-08-16T20:11:48.352Z,24.80
2022-08-16T20:14:24.651Z,24.75
2022-08-16T20:16:57.196Z,24.73
2022-08-16T20:19:27.092Z,24.70
2022-08-16T20:21:56.187Z,24.65
2022-08-16T20:24:34.177Z,24.63
2022-08-16T20:27:03.713Z,24.61
2022-08-16T20:29:31.030Z,24.57
2022-08-16T20:31:58.236Z,24.52
2022-08-16T20:34:25.376Z,24.52
2022-08-16T20:36:52.431Z,24.47
2022-08-16T20:39:19.872Z,24.44
2022-08-16T20:41:46.994Z,24.41
2022-08-16T20:44:14.164Z,24.35
2022-08-16T20:46:41.381Z,24.33
2022-08-16T20:49:10.129Z,24.30
2022-08-16T20:51:49.046Z,24.26
2022-08-16T20:54:17.115Z,24.25
2022-08-16T20:56:44.214Z,24.22
2022-08-16T20:59:11.277Z,24.19
2022-08-16T21:01:46.184Z,24.16
2022-08-16T21:04:14.331Z,24.11
2022-08-16T21:06:41.482Z,24.08
2022-08-16T21:09:20.412Z,24.06
2022-08-16T21:11:53.148Z,24.02
2022-08-16T21:14:20.347Z,23.98
2022-08-16T21:16:47.424Z,23.95
2022-08-16T21:19:14.841Z,23.92
2022-08-16T21:21:41.956Z,23.89
2022-08-16T21:24:09.060Z,23.86
2022-08-16T21:26:38.898Z,23.83
2022-08-16T21:29:07.802Z,23.81
2022-08-16T21:31:40.017Z,23.80
2022-08-16T21:34:08.043Z,23.76
2022-08-16T21:36:36.536Z,23.73
2022-08-16T21:39:06.037Z,23.69
2022-08-16T21:41:34.365Z,23.66
2022-08-16T21:44:01.571Z,23.62
2022-08-16T21:46:28.710Z,23.59
2022-08-16T21:48:55.808Z,23.57
2022-08-16T21:51:23.385Z,23.56
2022-08-16T21:53:50.468Z,23.55
2022-08-16T21:56:17.672Z,23.53
2022-08-16T21:58:46.264Z,23.49
2022-08-16T22:01:13.386Z,23.44
2022-08-16T22:03:40.521Z,23.39
2022-08-16T22:06:12.723Z,23.34
2022-08-16T22:08:48.756Z,23.29
2022-08-16T22:11:19.653Z,23.25
2022-08-16T22:13:51.476Z,23.23
2022-08-16T22:16:33.484Z,23.23
2022-08-16T22:19:00.972Z,23.21
2022-08-16T22:21:28.399Z,23.18
2022-08-16T22:23:57.542Z,23.13
2022-08-16T22:26:40.892Z,23.08
2022-08-16T22:29:12.783Z,23.03
2022-08-16T22:31:40.670Z,22.99
2022-08-16T22:34:08.862Z,22.98
2022-08-16T22:36:36.153Z,22.96
2022-08-16T22:39:06.237Z,22.92
2022-08-16T22:41:34.918Z,22.88
2022-08-16T22:44:03.544Z,22.86
2022-08-16T22:46:31.020Z,22.84
2022-08-16T22:48:58.215Z,22.82
2022-08-16T22:51:28.062Z,22.82
2022-08-16T22:53:56.111Z,22.80
2022-08-16T22:56:23.844Z,22.75
2022-08-16T22:58:51.016Z,22.72
2022-08-16T23:01:19.550Z,22.69
2022-08-16T23:03:46.740Z,22.67
2022-08-16T23:06:14.187Z,22.62
2022-08-16T23:08:42.060Z,22.61
2022-08-16T23:11:12.025Z,22.59
2022-08-16T23:13:49.849Z,22.57
2022-08-16T23:16:38.820Z,22.55
2022-08-16T23:19:08.480Z,22.53
2022-08-16T23:21:37.113Z,22.49
2022-08-16T23:24:05.788Z,22.46
2022-08-16T23:26:45.141Z,22.42
2022-08-16T23:29:23.607Z,22.39
2022-08-16T23:31:55.308Z,22.36
2022-08-16T23:34:22.714Z,22.35
2022-08-16T23:36:50.135Z,22.29
2022-08-16T23:39:17.247Z,22.26
2022-08-16T23:41:44.449Z,22.22
2022-08-16T23:44:55.334Z,22.21
2022-08-16T23:46:58.922Z,22.18
2022-08-16T23:49:58.988Z,22.16
2022-08-16T23:52:13.186Z,22.13
2022-08-16T23:54:40.294Z,22.12
2022-08-16T23:57:08.343Z,22.10
2022-08-16T23:59:41.101Z,22.06
